Terminal Aerodrome Forecast
Issued by NWS Charleston, WV

Current Version | Previous Version | Graphics & Text | Print | Product List | Glossary On
Versions: 1 2 3 4 5 6 7 8 9 10 11 12 13 14 15 16 17 18 19 20 21 22 23 24 25 26 27 28
000
FTUS41 KRLX 200310 AAB
TAFBKW
TAF AMD
KBKW 200310Z 2003/2024 01002KT 4SM BR SCT015
      TEMPO 2003/2006 1SM BR SCT001
     FM200600 00000KT 2SM BR SCT001 BKN012
     FM201000 00000KT 1/2SM FG VV001
     FM201300 36003KT 2SM BR BKN001 BKN015
     FM201600 03004KT P6SM SCT020
     FM201700 VRB03KT P6SM FEW200=

USA.gov is the U.S. government's official web portal to all federal, state and local government web resources and services.